createdAt,value
2016-06-02T17:27:05.025Z,0
2016-06-02T17:27:15.025Z,0
2016-06-02T17:27:25.025Z,0
2016-06-02T17:27:35.012Z,0
2016-06-02T17:27:45.012Z,0
2016-06-02T17:27:55.028Z,0
2016-06-02T17:28:04.996Z,0
2016-06-02T17:28:14.996Z,0
2016-06-02T17:28:24.996Z,0
2016-06-02T17:28:34.984Z,0
2016-06-02T17:28:44.984Z,0
2016-06-02T17:28:54.984Z,0
2016-06-02T17:29:04.968Z,0
2016-06-02T17:29:14.953Z,0
2016-06-02T17:29:24.953Z,0
2016-06-02T17:29:34.956Z,0
2016-06-02T17:29:44.956Z,0
2016-06-02T17:29:54.940Z,0
2016-06-02T17:30:04.940Z,0
2016-06-02T17:30:14.940Z,0
2016-06-02T17:30:24.768Z,0
2016-06-02T17:30:34.911Z,0
2016-06-02T17:30:44.911Z,0
2016-06-02T17:30:54.911Z,0
2016-06-02T17:31:04.911Z,0
2016-06-02T17:31:14.911Z,0
2016-06-02T17:31:24.895Z,0
2016-06-02T17:31:34.882Z,0
2016-06-02T17:31:44.882Z,0
2016-06-02T17:31:54.882Z,0
2016-06-02T17:32:04.867Z,0
2016-06-02T17:32:14.867Z,0
2016-06-02T17:32:24.867Z,0
2016-06-02T17:32:34.854Z,0
2016-06-02T17:32:44.854Z,0
2016-06-02T17:32:54.854Z,0
2016-06-02T17:33:04.839Z,0
2016-06-02T17:33:14.839Z,0
2016-06-02T17:33:24.839Z,0
2016-06-02T17:33:34.842Z,0
2016-06-02T17:33:44.826Z,0
2016-06-02T17:33:54.826Z,0
2016-06-02T17:34:04.810Z,0
2016-06-02T17:34:14.810Z,0
2016-06-02T17:34:24.810Z,0
2016-06-02T17:34:34.812Z,0
2016-06-02T17:34:44.797Z,0
2016-06-02T17:34:54.797Z,0
2016-06-02T17:35:04.781Z,0
2016-06-02T17:35:14.797Z,0
2016-06-02T17:35:24.781Z,0
2016-06-02T17:35:34.768Z,0
2016-06-02T17:35:44.768Z,0
2016-06-02T17:35:54.753Z,0
2016-06-02T17:36:04.612Z,0
2016-06-02T17:36:14.753Z,0
2016-06-02T17:36:24.737Z,0
2016-06-02T17:36:34.755Z,0
2016-06-02T17:36:44.739Z,0
2016-06-02T17:36:54.724Z,0
2016-06-02T17:37:04.739Z,0
2016-06-02T17:37:14.724Z,0
2016-06-02T17:37:24.724Z,0
2016-06-02T17:37:34.727Z,0
2016-06-02T17:37:44.711Z,0
2016-06-02T17:37:54.695Z,0
2016-06-02T17:38:04.695Z,0
2016-06-02T17:38:14.711Z,0
2016-06-02T17:38:24.695Z,0
2016-06-02T17:38:34.698Z,0
2016-06-02T17:38:44.683Z,0
2016-06-02T17:38:54.683Z,0
2016-06-02T17:39:04.667Z,0
2016-06-02T17:39:14.667Z,0
2016-06-02T17:39:24.667Z,0
2016-06-02T17:39:34.654Z,0
2016-06-02T17:39:45.529Z,0
2016-06-02T17:39:54.654Z,0
2016-06-02T17:40:04.639Z,0
2016-06-02T17:40:14.639Z,0
2016-06-02T17:40:24.498Z,0
2016-06-02T17:40:34.641Z,0
2016-06-02T17:40:44.641Z,0
2016-06-02T17:40:54.641Z,0
2016-06-02T17:41:04.625Z,0
2016-06-02T17:41:14.610Z,0
2016-06-02T17:41:24.610Z,0
2016-06-02T17:41:34.597Z,0
2016-06-02T17:41:44.597Z,0
2016-06-02T17:41:54.581Z,0
2016-06-02T17:42:04.581Z,0
2016-06-02T17:42:14.581Z,0
2016-06-02T17:42:24.581Z,0
2016-06-02T17:42:34.569Z,0
2016-06-02T17:42:44.569Z,0
2016-06-02T17:42:54.569Z,0
2016-06-02T17:43:04.553Z,0
2016-06-02T17:43:14.553Z,0
2016-06-02T17:43:24.553Z,0
2016-06-02T17:43:34.555Z,0
2016-06-02T17:43:44.539Z,0
2016-06-02T17:43:54.524Z,0
2016-06-02T17:44:04.524Z,0
2016-06-02T17:44:14.524Z,0
2016-06-02T17:44:24.524Z,0
2016-06-02T17:44:34.511Z,0
2016-06-02T17:44:44.511Z,0
2016-06-02T17:44:56.667Z,0
2016-06-02T17:45:04.496Z,0
2016-06-02T17:45:16.277Z,0
2016-06-02T17:45:24.496Z,0
2016-06-02T17:45:34.483Z,0
2016-06-02T17:45:44.483Z,0
2016-06-02T17:45:54.483Z,0
2016-06-02T17:46:04.467Z,0
2016-06-02T17:46:14.467Z,0
2016-06-02T17:46:24.311Z,0
2016-06-02T17:46:34.454Z,0
2016-06-02T17:46:44.454Z,0
2016-06-02T17:46:54.454Z,0
2016-06-02T17:47:04.438Z,0
2016-06-02T17:47:14.438Z,0
2016-06-02T17:47:24.422Z,0
2016-06-02T17:47:34.425Z,0
2016-06-02T17:47:44.425Z,0
2016-06-02T17:47:54.425Z,0
2016-06-02T17:48:04.410Z,0
2016-06-02T17:48:14.410Z,0
2016-06-02T17:48:24.410Z,0
2016-06-02T17:48:34.396Z,0
2016-06-02T17:48:44.396Z,0
2016-06-02T17:48:54.381Z,0
2016-06-02T17:49:04.381Z,0
2016-06-02T17:49:14.381Z,0
2016-06-02T17:49:24.381Z,0
2016-06-02T17:49:34.385Z,0
2016-06-02T17:49:44.369Z,0
2016-06-02T17:49:54.369Z,0
2016-06-02T17:50:04.369Z,0
2016-06-02T17:50:14.353Z,0
2016-06-02T17:50:24.338Z,0
2016-06-02T17:50:34.355Z,0
2016-06-02T17:50:44.340Z,0
2016-06-02T17:50:54.340Z,0
2016-06-02T17:51:04.324Z,0
2016-06-02T17:51:14.324Z,0
2016-06-02T17:51:24.324Z,0
2016-06-02T17:51:34.310Z,0
2016-06-02T17:51:44.310Z,0
2016-06-02T17:51:54.310Z,0
2016-06-02T17:52:04.295Z,0
2016-06-02T17:52:14.295Z,0
2016-06-02T17:52:24.295Z,0
2016-06-02T17:52:34.283Z,0
2016-06-02T17:52:44.283Z,0
2016-06-02T17:52:54.283Z,0
2016-06-02T17:53:04.268Z,0
2016-06-02T17:53:14.268Z,0
2016-06-02T17:53:24.268Z,0
2016-06-02T17:53:34.254Z,0
2016-06-02T17:53:44.254Z,0
2016-06-02T17:53:54.254Z,0
2016-06-02T17:54:04.238Z,0
2016-06-02T17:54:14.254Z,0
2016-06-02T17:54:24.082Z,0
2016-06-02T17:54:34.601Z,0
2016-06-02T17:54:44.241Z,0
2016-06-02T17:54:54.851Z,0
2016-06-02T17:55:04.226Z,0
2016-06-02T17:55:14.788Z,0
2016-06-02T17:55:24.429Z,0
2016-06-02T17:55:35.056Z,0
2016-06-02T17:55:44.056Z,0
2016-06-02T17:55:54.884Z,0
2016-06-02T17:56:04.181Z,0
2016-06-02T17:56:14.181Z,0
2016-06-02T17:56:24.181Z,0
2016-06-02T17:56:34.168Z,0
2016-06-02T17:56:44.168Z,0
2016-06-02T17:56:54.168Z,0
2016-06-02T17:57:04.153Z,0
2016-06-02T17:57:14.153Z,0
2016-06-02T17:57:24.153Z,0
2016-06-02T17:57:34.156Z,0
2016-06-02T17:57:44.140Z,0
2016-06-02T17:57:54.156Z,0
2016-06-02T17:58:04.140Z,0
2016-06-02T17:58:14.124Z,0
2016-06-02T17:58:24.124Z,0
2016-06-02T17:58:34.126Z,0
2016-06-02T17:58:44.111Z,0
2016-06-02T17:58:54.111Z,0
2016-06-02T17:59:04.111Z,0
2016-06-02T17:59:14.095Z,0
2016-06-02T17:59:24.095Z,0
2016-06-02T17:59:34.098Z,0
2016-06-02T17:59:44.082Z,0
2016-06-02T17:59:54.082Z,0
2016-06-02T18:00:04.082Z,0
2016-06-02T18:00:14.067Z,0
2016-06-02T18:00:24.067Z,0
2016-06-02T18:00:34.085Z,0
2016-06-02T18:00:44.054Z,0
2016-06-02T18:00:54.054Z,0
2016-06-02T18:01:04.054Z,0
2016-06-02T18:01:14.039Z,0
2016-06-02T18:01:24.039Z,0
2016-06-02T18:01:34.042Z,0
2016-06-02T18:01:44.026Z,0
2016-06-02T18:01:54.026Z,0
2016-06-02T18:02:04.010Z,0
2016-06-02T18:02:14.010Z,0
2016-06-02T18:02:24.010Z,0
2016-06-02T18:02:34.012Z,0
2016-06-02T18:02:44.012Z,0
2016-06-02T18:02:53.997Z,0
2016-06-02T18:03:03.997Z,0
2016-06-02T18:03:13.981Z,0
2016-06-02T18:03:23.981Z,0
2016-06-02T18:03:33.984Z,0
2016-06-02T18:03:43.968Z,0
2016-06-02T18:03:53.968Z,0
2016-06-02T18:04:03.968Z,0
2016-06-02T18:04:13.968Z,0
2016-06-02T18:04:23.953Z,0
2016-06-02T18:04:33.955Z,0
2016-06-02T18:04:43.939Z,0
2016-06-02T18:04:53.955Z,0
2016-06-02T18:05:03.939Z,0
2016-06-02T18:05:13.924Z,0
2016-06-02T18:05:23.924Z,0
2016-06-02T18:05:33.942Z,0
2016-06-02T18:05:43.927Z,0
2016-06-02T18:05:53.927Z,0
2016-06-02T18:06:03.911Z,0
2016-06-02T18:06:13.911Z,0
2016-06-02T18:06:23.895Z,0
2016-06-02T18:06:33.898Z,0
2016-06-02T18:06:43.898Z,0
2016-06-02T18:06:53.883Z,0
2016-06-02T18:07:03.883Z,0
2016-06-02T18:07:13.867Z,0
2016-06-02T18:07:23.867Z,0
2016-06-02T18:07:33.870Z,0
2016-06-02T18:07:43.870Z,0
2016-06-02T18:07:53.854Z,0
2016-06-02T18:08:03.854Z,0
2016-06-02T18:08:13.854Z,0
2016-06-02T18:08:23.854Z,0
2016-06-02T18:08:33.842Z,0
2016-06-02T18:08:43.826Z,0
2016-06-02T18:08:53.842Z,0
2016-06-02T18:09:03.826Z,0
2016-06-02T18:09:13.826Z,0
2016-06-02T18:09:23.811Z,0
2016-06-02T18:09:33.828Z,0
2016-06-02T18:09:44.094Z,0
2016-06-02T18:09:53.813Z,0
2016-06-02T18:10:04.031Z,0
2016-06-02T18:10:13.969Z,0
2016-06-02T18:10:23.781Z,0
2016-06-02T18:10:34.284Z,0
2016-06-02T18:10:43.800Z,0
2016-06-02T18:10:54.612Z,0
2016-06-02T18:11:03.784Z,0
2016-06-02T18:11:13.769Z,0
2016-06-02T18:11:23.769Z,0
2016-06-02T18:11:33.755Z,0
2016-06-02T18:11:43.755Z,0
2016-06-02T18:11:53.755Z,0
2016-06-02T18:12:03.739Z,0
2016-06-02T18:12:13.739Z,0
2016-06-02T18:12:23.724Z,0
2016-06-02T18:12:33.727Z,0
2016-06-02T18:12:43.742Z,0
2016-06-02T18:12:53.711Z,0
2016-06-02T18:13:03.711Z,0
2016-06-02T18:13:13.711Z,0
2016-06-02T18:13:23.711Z,0
2016-06-02T18:13:33.699Z,0
2016-06-02T18:13:43.699Z,0
2016-06-02T18:13:53.683Z,0
2016-06-02T18:14:03.683Z,0
2016-06-02T18:14:13.683Z,0
2016-06-02T18:14:23.667Z,0
2016-06-02T18:14:33.669Z,0
2016-06-02T18:14:43.685Z,0
2016-06-02T18:14:53.654Z,0
2016-06-02T18:15:03.654Z,0
2016-06-02T18:15:13.654Z,0
2016-06-02T18:15:23.638Z,0
2016-06-02T18:15:33.642Z,0
2016-06-02T18:15:43.642Z,0
2016-06-02T18:15:53.626Z,0
2016-06-02T18:16:03.626Z,0
2016-06-02T18:16:13.626Z,0
2016-06-02T18:16:23.611Z,0
2016-06-02T18:16:33.613Z,0
2016-06-02T18:16:43.613Z,0
2016-06-02T18:16:53.613Z,0
2016-06-02T18:17:03.597Z,0
2016-06-02T18:17:13.597Z,0
2016-06-02T18:17:23.597Z,0
2016-06-02T18:17:33.584Z,0
2016-06-02T18:17:43.584Z,0
2016-06-02T18:17:53.584Z,0
2016-06-02T18:18:03.568Z,0
2016-06-02T18:18:13.568Z,0
2016-06-02T18:18:23.568Z,0
2016-06-02T18:18:33.555Z,0
2016-06-02T18:18:43.555Z,0
2016-06-02T18:18:53.555Z,0
2016-06-02T18:19:03.540Z,0
2016-06-02T18:19:13.540Z,0
2016-06-02T18:19:23.540Z,0
2016-06-02T18:19:33.543Z,0
2016-06-02T18:19:43.527Z,0
2016-06-02T18:19:53.527Z,0
2016-06-02T18:20:03.511Z,0
2016-06-02T18:20:13.511Z,0
2016-06-02T18:20:23.355Z,0
2016-06-02T18:20:33.499Z,0
2016-06-02T18:20:43.499Z,0
2016-06-02T18:20:53.499Z,0
2016-06-02T18:21:03.483Z,0
2016-06-02T18:21:13.499Z,0
2016-06-02T18:21:23.483Z,0
2016-06-02T18:21:33.470Z,0
2016-06-02T18:21:43.470Z,0
2016-06-02T18:21:53.454Z,0
2016-06-02T18:22:03.454Z,0
2016-06-02T18:22:13.470Z,0
2016-06-02T18:22:23.454Z,0
2016-06-02T18:22:33.457Z,0
2016-06-02T18:22:43.441Z,0
2016-06-02T18:22:53.441Z,0
2016-06-02T18:23:03.441Z,0
2016-06-02T18:23:13.426Z,0
2016-06-02T18:23:23.426Z,0
2016-06-02T18:23:33.413Z,0
2016-06-02T18:23:43.413Z,0
2016-06-02T18:23:53.413Z,0
2016-06-02T18:24:03.397Z,0
2016-06-02T18:24:13.397Z,0
2016-06-02T18:24:23.397Z,0
2016-06-02T18:24:33.259Z,0
2016-06-02T18:24:44.384Z,0
2016-06-02T18:24:53.384Z,0
2016-06-02T18:25:03.649Z,0
2016-06-02T18:25:13.384Z,0
2016-06-02T18:25:23.368Z,0
2016-06-02T18:25:33.560Z,0
2016-06-02T18:25:43.810Z,0
2016-06-02T18:25:53.560Z,0
2016-06-02T18:26:03.357Z,0
2016-06-02T18:26:13.341Z,0
2016-06-02T18:26:23.341Z,0
2016-06-02T18:26:33.326Z,0
2016-06-02T18:26:43.326Z,0
2016-06-02T18:26:53.326Z,0
2016-06-02T18:27:03.326Z,0
2016-06-02T18:27:13.311Z,0
2016-06-02T18:27:23.311Z,0
2016-06-02T18:27:33.314Z,0
2016-06-02T18:27:43.298Z,0
2016-06-02T18:27:53.298Z,0
2016-06-02T18:28:03.298Z,0
2016-06-02T18:28:13.298Z,0
2016-06-02T18:28:23.282Z,0
2016-06-02T18:28:33.285Z,0
2016-06-02T18:28:43.270Z,0
2016-06-02T18:28:53.270Z,0
2016-06-02T18:29:03.270Z,0
2016-06-02T18:29:13.254Z,0
2016-06-02T18:29:23.254Z,0
2016-06-02T18:29:33.257Z,0
2016-06-02T18:29:43.257Z,0
2016-06-02T18:29:53.242Z,0
2016-06-02T18:30:03.242Z,0
2016-06-02T18:30:13.226Z,0
2016-06-02T18:30:23.226Z,0
2016-06-02T18:30:33.228Z,0
2016-06-02T18:30:43.212Z,0
2016-06-02T18:30:53.212Z,0
2016-06-02T18:31:03.212Z,0
2016-06-02T18:31:13.197Z,0
2016-06-02T18:31:23.197Z,0
2016-06-02T18:31:33.201Z,0
2016-06-02T18:31:43.185Z,0
2016-06-02T18:31:53.185Z,0
2016-06-02T18:32:03.185Z,0
2016-06-02T18:32:13.169Z,0
2016-06-02T18:32:23.169Z,0
2016-06-02T18:32:33.171Z,0
2016-06-02T18:32:43.171Z,0
2016-06-02T18:32:53.156Z,0
2016-06-02T18:33:03.156Z,0
2016-06-02T18:33:13.156Z,0
2016-06-02T18:33:23.156Z,0
2016-06-02T18:33:33.142Z,0
2016-06-02T18:33:43.142Z,0
2016-06-02T18:33:53.127Z,0
2016-06-02T18:34:03.127Z,0
2016-06-02T18:34:13.111Z,0
2016-06-02T18:34:23.111Z,0
2016-06-02T18:34:33.114Z,0
2016-06-02T18:34:43.098Z,0
2016-06-02T18:34:53.098Z,0
2016-06-02T18:35:03.098Z,0
2016-06-02T18:35:13.083Z,0
2016-06-02T18:35:23.083Z,0
2016-06-02T18:35:33.086Z,0
2016-06-02T18:35:43.070Z,0
2016-06-02T18:35:53.070Z,0
2016-06-02T18:36:03.070Z,0
2016-06-02T18:36:12.929Z,0
2016-06-02T18:36:23.054Z,0
2016-06-02T18:36:33.057Z,0
2016-06-02T18:36:43.057Z,0
2016-06-02T18:36:53.057Z,0
2016-06-02T18:37:03.042Z,0
2016-06-02T18:37:13.042Z,0
2016-06-02T18:37:23.026Z,0
2016-06-02T18:37:33.028Z,0
2016-06-02T18:37:43.028Z,0
2016-06-02T18:37:53.013Z,0
2016-06-02T18:38:03.013Z,0
2016-06-02T18:38:13.013Z,0
2016-06-02T18:38:23.013Z,0
2016-06-02T18:38:33.001Z,0
2016-06-02T18:38:43.001Z,0
2016-06-02T18:38:53.001Z,0
2016-06-02T18:39:03.001Z,0
2016-06-02T18:39:12.985Z,0
2016-06-02T18:39:22.985Z,0
2016-06-02T18:39:32.814Z,0
2016-06-02T18:39:42.971Z,0
2016-06-02T18:39:53.268Z,0
2016-06-02T18:40:03.049Z,0
2016-06-02T18:40:13.346Z,0
2016-06-02T18:40:23.533Z,0
2016-06-02T18:40:33.099Z,0
2016-06-02T18:40:42.802Z,0
2016-06-02T18:40:52.927Z,0
2016-06-02T18:41:02.927Z,0
2016-06-02T18:41:12.927Z,0
2016-06-02T18:41:22.927Z,0
2016-06-02T18:41:32.758Z,0
2016-06-02T18:41:42.914Z,0
2016-06-02T18:41:52.914Z,0
2016-06-02T18:42:02.899Z,0
2016-06-02T18:42:12.914Z,0
2016-06-02T18:42:22.899Z,0
2016-06-02T18:42:32.886Z,0
2016-06-02T18:42:42.886Z,0
2016-06-02T18:42:52.886Z,0
2016-06-02T18:43:02.886Z,0
2016-06-02T18:43:12.870Z,0
2016-06-02T18:43:22.855Z,0
2016-06-02T18:43:32.858Z,0
2016-06-02T18:43:42.858Z,0
2016-06-02T18:43:52.858Z,0
2016-06-02T18:44:02.842Z,0
2016-06-02T18:44:12.842Z,0
2016-06-02T18:44:22.826Z,0
2016-06-02T18:44:32.829Z,0
2016-06-02T18:44:42.845Z,0
2016-06-02T18:44:52.829Z,0
2016-06-02T18:45:02.829Z,0
2016-06-02T18:45:12.814Z,0
2016-06-02T18:45:22.814Z,0
2016-06-02T18:45:32.800Z,0
2016-06-02T18:45:42.800Z,0
2016-06-02T18:45:52.800Z,0
2016-06-02T18:46:02.800Z,0
2016-06-02T18:46:12.785Z,0
2016-06-02T18:46:22.785Z,0
2016-06-02T18:46:32.788Z,0
2016-06-02T18:46:42.772Z,0
2016-06-02T18:46:52.772Z,0
2016-06-02T18:47:02.772Z,0
2016-06-02T18:47:12.756Z,0
2016-06-02T18:47:22.756Z,0
2016-06-02T18:47:32.759Z,0
2016-06-02T18:47:42.744Z,0
2016-06-02T18:47:52.744Z,0
2016-06-02T18:48:02.744Z,0
2016-06-02T18:48:12.728Z,0
2016-06-02T18:48:22.728Z,0
2016-06-02T18:48:32.730Z,0
2016-06-02T18:48:42.714Z,0
2016-06-02T18:48:52.714Z,0
2016-06-02T18:49:02.699Z,0
2016-06-02T18:49:12.714Z,0
2016-06-02T18:49:22.699Z,0
2016-06-02T18:49:32.702Z,0
2016-06-02T18:49:42.686Z,0
2016-06-02T18:49:52.686Z,0
2016-06-02T18:50:02.686Z,0
2016-06-02T18:50:12.686Z,0
2016-06-02T18:50:22.671Z,0
2016-06-02T18:50:32.674Z,0
2016-06-02T18:50:42.658Z,0
2016-06-02T18:50:52.658Z,0
2016-06-02T18:51:02.658Z,0
2016-06-02T18:51:12.642Z,0
2016-06-02T18:51:22.642Z,0
2016-06-02T18:51:32.644Z,0
2016-06-02T18:51:42.644Z,0
2016-06-02T18:51:52.629Z,0
2016-06-02T18:52:02.629Z,0
2016-06-02T18:52:12.613Z,0
2016-06-02T18:52:22.613Z,0
2016-06-02T18:52:32.615Z,0
2016-06-02T18:52:42.599Z,0
2016-06-02T18:52:52.599Z,0
2016-06-02T18:53:02.599Z,0
2016-06-02T18:53:12.599Z,0
2016-06-02T18:53:22.584Z,0
2016-06-02T18:53:32.588Z,0
2016-06-02T18:53:42.572Z,0
2016-06-02T18:53:52.572Z,0
2016-06-02T18:54:02.572Z,0
2016-06-02T18:54:12.557Z,0
2016-06-02T18:54:22.557Z,0
2016-06-02T18:54:32.559Z,0
2016-06-02T18:54:42.543Z,0
2016-06-02T18:54:52.543Z,0
2016-06-02T18:55:02.559Z,0
2016-06-02T18:55:12.621Z,0
2016-06-02T18:55:22.527Z,0
2016-06-02T18:55:32.749Z,0
2016-06-02T18:55:42.390Z,0
2016-06-02T18:55:53.405Z,0
2016-06-02T18:56:02.358Z,0
2016-06-02T18:56:12.499Z,0
2016-06-02T18:56:22.499Z,0
2016-06-02T18:56:32.499Z,0
2016-06-02T18:56:42.502Z,0
2016-06-02T18:56:52.486Z,0
2016-06-02T18:57:02.486Z,0
2016-06-02T18:57:12.486Z,0
2016-06-02T18:57:22.471Z,0
2016-06-02T18:57:32.471Z,0
2016-06-02T18:57:42.457Z,0
2016-06-02T18:57:52.457Z,0
2016-06-02T18:58:02.457Z,0
2016-06-02T18:58:12.442Z,0
2016-06-02T18:58:22.457Z,0
2016-06-02T18:58:32.442Z,0
2016-06-02T18:58:42.445Z,0
2016-06-02T18:58:52.429Z,0
2016-06-02T18:59:02.429Z,0
2016-06-02T18:59:12.429Z,0
2016-06-02T18:59:22.413Z,0
2016-06-02T18:59:32.413Z,0
2016-06-02T18:59:42.401Z,0
2016-06-02T18:59:52.401Z,0
2016-06-02T19:00:02.401Z,0
2016-06-02T19:00:12.401Z,0
2016-06-02T19:00:22.385Z,0
2016-06-02T19:00:32.385Z,0
2016-06-02T19:00:42.388Z,0
2016-06-02T19:00:52.372Z,0
2016-06-02T19:01:02.372Z,0
2016-06-02T19:01:12.372Z,0
2016-06-02T19:01:22.357Z,0
2016-06-02T19:01:32.357Z,0
2016-06-02T19:01:42.359Z,0
2016-06-02T19:01:52.343Z,0
2016-06-02T19:02:02.343Z,0
2016-06-02T19:02:12.343Z,0
2016-06-02T19:02:22.328Z,0
2016-06-02T19:02:32.328Z,0
2016-06-02T19:02:42.331Z,0
2016-06-02T19:02:52.315Z,0
2016-06-02T19:03:02.315Z,0
2016-06-02T19:03:12.315Z,0
2016-06-02T19:03:22.299Z,0
2016-06-02T19:03:32.299Z,0
2016-06-02T19:03:42.145Z,0
2016-06-02T19:03:52.286Z,0
2016-06-02T19:04:02.286Z,0
2016-06-02T19:04:12.286Z,0
2016-06-02T19:04:22.270Z,0
2016-06-02T19:04:32.286Z,0
2016-06-02T19:04:42.273Z,0
2016-06-02T19:04:52.257Z,0
2016-06-02T19:05:02.257Z,0
2016-06-02T19:05:12.257Z,0
2016-06-02T19:05:22.257Z,0
2016-06-02T19:05:32.242Z,0
2016-06-02T19:05:42.245Z,0
2016-06-02T19:05:52.245Z,0
2016-06-02T19:06:02.229Z,0
2016-06-02T19:06:12.229Z,0
2016-06-02T19:06:22.229Z,1
2016-06-02T19:06:32.214Z,1.2
2016-06-02T19:06:42.262Z,2.1
2016-06-02T19:06:52.216Z,2.9
2016-06-02T19:07:02.216Z,3.4
2016-06-02T19:07:12.200Z,3.8
2016-06-02T19:07:22.184Z,4.6
2016-06-02T19:07:32.184Z,5.5
2016-06-02T19:07:42.188Z,6.1
2016-06-02T19:07:52.173Z,6.3
2016-06-02T19:08:02.173Z,7
2016-06-02T19:08:12.173Z,7.9
2016-06-02T19:08:22.173Z,8.9
2016-06-02T19:08:32.157Z,9.1
2016-06-02T19:08:42.159Z,10.3
2016-06-02T19:08:52.159Z,10.8
2016-06-02T19:09:02.143Z,11.7
2016-06-02T19:09:12.143Z,12.7
2016-06-02T19:09:22.143Z,13.3
2016-06-02T19:09:32.143Z,14.5
2016-06-02T19:09:42.131Z,14.8
2016-06-02T19:09:52.131Z,15.9
2016-06-02T19:10:02.506Z,16.2
2016-06-02T19:10:12.537Z,16.9
2016-06-02T19:10:22.115Z,17.8
2016-06-02T19:10:32.271Z,18.6
2016-06-02T19:10:41.977Z,19
2016-06-02T19:10:52.508Z,19.8
2016-06-02T19:11:02.102Z,20.9
2016-06-02T19:11:12.086Z,21.8
2016-06-02T19:11:22.086Z,23.1
2016-06-02T19:11:32.070Z,23.6
2016-06-02T19:11:42.073Z,24.9
2016-06-02T19:11:52.073Z,25.5
2016-06-02T19:12:02.073Z,25.7
2016-06-02T19:12:12.058Z,27
2016-06-02T19:12:22.058Z,27.7
2016-06-02T19:12:32.042Z,28.6
2016-06-02T19:12:42.045Z,29.8
2016-06-02T19:12:52.045Z,31.1
2016-06-02T19:13:02.045Z,32.5
2016-06-02T19:13:12.029Z,33.6
2016-06-02T19:13:22.029Z,34.9
2016-06-02T19:13:32.029Z,36.2
2016-06-02T19:13:42.017Z,37.3
2016-06-02T19:13:52.032Z,38.6
2016-06-02T19:14:02.017Z,39.5
2016-06-02T19:14:12.001Z,40.2
2016-06-02T19:14:22.001Z,41.2
2016-06-02T19:14:32.001Z,41.7
2016-06-02T19:14:41.988Z,42.4
2016-06-02T19:14:51.988Z,41.2
2016-06-02T19:15:01.988Z,41.4
2016-06-02T19:15:11.972Z,41.5
2016-06-02T19:15:21.972Z,42.2
2016-06-02T19:15:31.972Z,42.8
2016-06-02T19:15:41.959Z,43.7
2016-06-02T19:15:51.959Z,44.3
2016-06-02T19:16:01.959Z,45.1
2016-06-02T19:16:11.944Z,45.8
2016-06-02T19:16:21.944Z,46.9
2016-06-02T19:16:31.944Z,47.8
2016-06-02T19:16:41.947Z,48.3
2016-06-02T19:16:51.947Z,48.8
2016-06-02T19:17:01.931Z,49.8
2016-06-02T19:17:11.915Z,50.4
2016-06-02T19:17:21.931Z,51
2016-06-02T19:17:31.915Z,51.7
2016-06-02T19:17:41.917Z,51.9
2016-06-02T19:17:51.902Z,51.9
2016-06-02T19:18:01.917Z,52.2
2016-06-02T19:18:11.902Z,52.5
2016-06-02T19:18:21.886Z,53.4
2016-06-02T19:18:31.886Z,53.3
2016-06-02T19:18:41.889Z,53.6
2016-06-02T19:18:51.874Z,53.5
2016-06-02T19:19:01.874Z,54.3
2016-06-02T19:19:11.889Z,55
2016-06-02T19:19:21.858Z,55.4
2016-06-02T19:19:31.858Z,56
2016-06-02T19:19:41.861Z,58.2
2016-06-02T19:19:51.845Z,59.7
2016-06-02T19:20:01.845Z,60.1
2016-06-02T19:20:11.845Z,60.5
2016-06-02T19:20:21.830Z,60.9
2016-06-02T19:20:31.830Z,61.4
2016-06-02T19:20:41.833Z,61.7
2016-06-02T19:20:51.817Z,62.5
2016-06-02T19:21:01.817Z,63
2016-06-02T19:21:11.801Z,63.3
2016-06-02T19:21:21.801Z,63.2
2016-06-02T19:21:31.801Z,64
2016-06-02T19:21:41.788Z,64.2
2016-06-02T19:21:51.788Z,65.1
2016-06-02T19:22:01.788Z,67.1
2016-06-02T19:22:11.772Z,68.8
2016-06-02T19:22:21.772Z,68.9
2016-06-02T19:22:31.772Z,69.7
2016-06-02T19:22:41.775Z,66.8
2016-06-02T19:22:51.760Z,66.6
2016-06-02T19:23:01.760Z,67.6
2016-06-02T19:23:11.760Z,68.1
2016-06-02T19:23:21.744Z,68.9
2016-06-02T19:23:31.744Z,69
2016-06-02T19:23:41.746Z,69.6
2016-06-02T19:23:51.730Z,70.1
2016-06-02T19:24:01.730Z,70.8
2016-06-02T19:24:11.730Z,71.5
2016-06-02T19:24:21.715Z,72.1
2016-06-02T19:24:31.715Z,72.9
2016-06-02T19:24:41.733Z,74
2016-06-02T19:24:51.577Z,74.7
2016-06-02T19:25:02.733Z,75.5
2016-06-02T19:25:11.702Z,74.3
2016-06-02T19:25:22.374Z,74.5
2016-06-02T19:25:31.811Z,75.3
2016-06-02T19:25:41.689Z,75.8
2016-06-02T19:25:51.689Z,76.9
2016-06-02T19:26:01.689Z,75.2
2016-06-02T19:26:11.674Z,75.3
2016-06-02T19:26:21.674Z,75.8
2016-06-02T19:26:31.658Z,76.2
2016-06-02T19:26:41.660Z,76.6
2016-06-02T19:26:51.660Z,77.1
2016-06-02T19:27:01.645Z,77.4
2016-06-02T19:27:11.645Z,77.9
2016-06-02T19:27:21.645Z,78
2016-06-02T19:27:31.629Z,78.3
2016-06-02T19:27:41.632Z,78.3
2016-06-02T19:27:51.616Z,78.6
2016-06-02T19:28:01.616Z,78.9
2016-06-02T19:28:11.616Z,79.1
2016-06-02T19:28:21.601Z,79.3
2016-06-02T19:28:31.601Z,79.1
2016-06-02T19:28:41.604Z,79.6
2016-06-02T19:28:51.588Z,79.6
2016-06-02T19:29:01.588Z,79.9
2016-06-02T19:29:11.604Z,79.7
2016-06-02T19:29:21.572Z,79.8
2016-06-02T19:29:31.572Z,80
2016-06-02T19:29:41.574Z,80
2016-06-02T19:29:51.559Z,79.9
2016-06-02T19:30:01.559Z,80.4
2016-06-02T19:30:11.559Z,84.5
2016-06-02T19:30:21.543Z,84.8
2016-06-02T19:30:31.387Z,85.4
2016-06-02T19:30:41.546Z,85.7
2016-06-02T19:30:51.531Z,85.5
2016-06-02T19:31:01.531Z,86.2
2016-06-02T19:31:11.531Z,86.5
2016-06-02T19:31:21.531Z,86.3
2016-06-02T19:31:31.515Z,86.2
2016-06-02T19:31:41.518Z,86.7
2016-06-02T19:31:51.518Z,86.5
2016-06-02T19:32:01.502Z,86.9
2016-06-02T19:32:11.534Z,86.9
2016-06-02T19:32:21.502Z,86.8
2016-06-02T19:32:31.487Z,86.8
2016-06-02T19:32:41.489Z,87
2016-06-02T19:32:51.489Z,87.2
2016-06-02T19:33:01.489Z,87.1
2016-06-02T19:33:11.473Z,87.5
2016-06-02T19:33:21.473Z,87.6
2016-06-02T19:33:31.457Z,87.5
2016-06-02T19:33:41.460Z,87.5
2016-06-02T19:33:51.460Z,88
2016-06-02T19:34:01.445Z,87.6
2016-06-02T19:34:11.445Z,87.6
2016-06-02T19:34:21.445Z,88
2016-06-02T19:34:31.429Z,87.6
2016-06-02T19:34:41.431Z,87.6
2016-06-02T19:34:51.431Z,87.7
2016-06-02T19:35:01.431Z,87.5
2016-06-02T19:35:11.416Z,87.7
2016-06-02T19:35:21.416Z,87.5
2016-06-02T19:35:31.400Z,87.5
2016-06-02T19:35:41.404Z,86.5
2016-06-02T19:35:51.404Z,87
2016-06-02T19:36:01.420Z,86.5
2016-06-02T19:36:11.388Z,86.4
2016-06-02T19:36:21.388Z,86.5
2016-06-02T19:36:31.373Z,86.6
2016-06-02T19:36:41.375Z,86.9
2016-06-02T19:36:51.375Z,86.7
2016-06-02T19:37:01.359Z,87.1
2016-06-02T19:37:11.359Z,86.8
2016-06-02T19:37:21.359Z,87
2016-06-02T19:37:31.343Z,87.1
2016-06-02T19:37:41.346Z,87.7
2016-06-02T19:37:51.346Z,87.5
2016-06-02T19:38:01.331Z,87.5
2016-06-02T19:38:11.331Z,87.7
2016-06-02T19:38:21.331Z,87.7
2016-06-02T19:38:31.315Z,88
2016-06-02T19:38:41.334Z,88.1
2016-06-02T19:38:51.318Z,88.5
2016-06-02T19:39:01.303Z,88.4
2016-06-02T19:39:11.303Z,88.6
2016-06-02T19:39:21.303Z,88.8
2016-06-02T19:39:31.287Z,88.7
2016-06-02T19:39:41.289Z,88.8
2016-06-02T19:39:51.742Z,89
2016-06-02T19:40:01.367Z,89.1
2016-06-02T19:40:11.273Z,88.8
2016-06-02T19:40:21.273Z,89.8
2016-06-02T19:40:31.445Z,89.3
2016-06-02T19:40:41.261Z,89.1
2016-06-02T19:40:51.698Z,89.8
2016-06-02T19:41:01.683Z,89.1
2016-06-02T19:41:11.245Z,89.6
2016-06-02T19:41:21.245Z,89.7
2016-06-02T19:41:31.245Z,89.3
2016-06-02T19:41:41.232Z,89.3
2016-06-02T19:41:51.232Z,89.6
2016-06-02T19:42:01.217Z,89.6
2016-06-02T19:42:11.217Z,89.6
2016-06-02T19:42:21.217Z,89.9
2016-06-02T19:42:31.217Z,90
2016-06-02T19:42:41.203Z,89.8
2016-06-02T19:42:51.203Z,90
2016-06-02T19:43:01.188Z,89.8
2016-06-02T19:43:11.188Z,90
2016-06-02T19:43:21.188Z,89.9
2016-06-02T19:43:31.172Z,90.6
2016-06-02T19:43:41.175Z,90.5
2016-06-02T19:43:51.159Z,90.3
2016-06-02T19:44:01.175Z,90.9
2016-06-02T19:44:11.159Z,90.7
2016-06-02T19:44:21.159Z,91.2
2016-06-02T19:44:31.159Z,91.3
2016-06-02T19:44:41.147Z,91.5
2016-06-02T19:44:51.162Z,91.3
2016-06-02T19:45:01.147Z,91.4
2016-06-02T19:45:11.131Z,91
2016-06-02T19:45:21.131Z,91.2
2016-06-02T19:45:31.131Z,91.2
2016-06-02T19:45:40.961Z,91
2016-06-02T19:45:51.117Z,91.7
2016-06-02T19:46:01.117Z,91.3
2016-06-02T19:46:10.961Z,91.6
2016-06-02T19:46:21.102Z,91.4
2016-06-02T19:46:31.102Z,91.4
2016-06-02T19:46:41.089Z,91.4
2016-06-02T19:46:51.089Z,91.5
2016-06-02T19:47:01.089Z,91.7
2016-06-02T19:47:11.074Z,91.4
2016-06-02T19:47:21.074Z,91.8
2016-06-02T19:47:31.074Z,91.6
2016-06-02T19:47:41.061Z,91.7
2016-06-02T19:47:51.061Z,91.4
2016-06-02T19:48:01.061Z,91
2016-06-02T19:48:11.045Z,91.6
2016-06-02T19:48:21.045Z,91.4
2016-06-02T19:48:31.045Z,91.5
2016-06-02T19:48:41.032Z,91.6
2016-06-02T19:48:51.032Z,92
2016-06-02T19:49:01.032Z,91.9
2016-06-02T19:49:11.016Z,91.2
2016-06-02T19:49:21.016Z,92.1
2016-06-02T19:49:31.016Z,92.5
2016-06-02T19:49:41.003Z,92.2
2016-06-02T19:49:51.003Z,92.3
2016-06-02T19:50:01.003Z,92.5
2016-06-02T19:50:10.988Z,92.5
2016-06-02T19:50:20.988Z,91.9